sensor_id;sensor_type;location;lat;lon;timestamp;pressure;altitude;pressure_sealevel;temperature;humidity
20710;BME280;10516;51.518;9.864;2023-06-14T00:00:04;98801.16;;;16.62;52.62
20710;BME280;10516;51.518;9.864;2023-06-14T00:02:31;98803.38;;;16.55;52.54
20710;BME280;10516;51.518;9.864;2023-06-14T00:04:56;98803.06;;;17.17;51.54
20710;BME280;10516;51.518;9.864;2023-06-14T00:07:36;98797.44;;;16.58;52.97
20710;BME280;10516;51.518;9.864;2023-06-14T00:10:03;98809.47;;;16.13;54.14
20710;BME280;10516;51.518;9.864;2023-06-14T00:12:29;98807.06;;;17.57;51.16
20710;BME280;10516;51.518;9.864;2023-06-14T00:14:54;98814.53;;;17.78;50.39
20710;BME280;10516;51.518;9.864;2023-06-14T00:17:20;98812.75;;;16.81;52.20
20710;BME280;10516;51.518;9.864;2023-06-14T00:19:46;98817.22;;;16.19;53.32
20710;BME280;10516;51.518;9.864;2023-06-14T00:22:11;98817.19;;;16.72;52.22
20710;BME280;10516;51.518;9.864;2023-06-14T00:24:37;98795.28;;;16.07;53.17
20710;BME280;10516;51.518;9.864;2023-06-14T00:27:02;98811.03;;;16.42;53.30
20710;BME280;10516;51.518;9.864;2023-06-14T00:29:28;98814.94;;;17.35;51.42
20710;BME280;10516;51.518;9.864;2023-06-14T00:31:53;98821.16;;;17.16;51.84
20710;BME280;10516;51.518;9.864;2023-06-14T00:34:19;98805.34;;;17.29;51.39
20710;BME280;10516;51.518;9.864;2023-06-14T00:36:44;98818.50;;;16.74;52.90
20710;BME280;10516;51.518;9.864;2023-06-14T00:39:09;98819.94;;;17.78;50.69
20710;BME280;10516;51.518;9.864;2023-06-14T00:41:35;98812.63;;;17.28;51.05
20710;BME280;10516;51.518;9.864;2023-06-14T00:44:00;98807.72;;;18.13;49.62
20710;BME280;10516;51.518;9.864;2023-06-14T00:46:25;98816.94;;;18.39;49.16
20710;BME280;10516;51.518;9.864;2023-06-14T00:48:51;98824.91;;;18.63;48.78
20710;BME280;10516;51.518;9.864;2023-06-14T00:51:17;98804.19;;;18.58;48.98
20710;BME280;10516;51.518;9.864;2023-06-14T00:53:44;98824.19;;;18.57;49.05
20710;BME280;10516;51.518;9.864;2023-06-14T00:56:13;98813.47;;;18.52;49.63
20710;BME280;10516;51.518;9.864;2023-06-14T00:58:39;98804.47;;;18.43;49.77
20710;BME280;10516;51.518;9.864;2023-06-14T01:01:04;98808.47;;;18.46;49.78
20710;BME280;10516;51.518;9.864;2023-06-14T01:03:30;98827.09;;;17.69;51.56
20710;BME280;10516;51.518;9.864;2023-06-14T01:06:08;98819.84;;;18.29;50.23
20710;BME280;10516;51.518;9.864;2023-06-14T01:08:47;98828.69;;;18.48;49.73
20710;BME280;10516;51.518;9.864;2023-06-14T01:11:22;98810.63;;;18.44;49.62
20710;BME280;10516;51.518;9.864;2023-06-14T01:13:53;98800.53;;;18.36;50.21
20710;BME280;10516;51.518;9.864;2023-06-14T01:16:19;98813.06;;;18.32;50.06
20710;BME280;10516;51.518;9.864;2023-06-14T01:18:45;98810.44;;;17.11;52.27
20710;BME280;10516;51.518;9.864;2023-06-14T01:21:20;98805.81;;;17.68;51.15
20710;BME280;10516;51.518;9.864;2023-06-14T01:23:46;98799.00;;;17.01;52.79
20710;BME280;10516;51.518;9.864;2023-06-14T01:26:18;98803.44;;;17.66;51.71
20710;BME280;10516;51.518;9.864;2023-06-14T01:28:44;98796.31;;;17.01;52.08
20710;BME280;10516;51.518;9.864;2023-06-14T01:31:20;98813.44;;;17.29;52.12
20710;BME280;10516;51.518;9.864;2023-06-14T01:33:48;98809.38;;;16.70;53.55
20710;BME280;10516;51.518;9.864;2023-06-14T01:36:15;98814.09;;;16.60;54.07
20710;BME280;10516;51.518;9.864;2023-06-14T01:38:41;98814.44;;;16.77;53.05
20710;BME280;10516;51.518;9.864;2023-06-14T01:41:08;98814.38;;;15.77;55.06
20710;BME280;10516;51.518;9.864;2023-06-14T01:43:35;98811.09;;;15.51;56.21
20710;BME280;10516;51.518;9.864;2023-06-14T01:46:02;98816.22;;;15.53;56.26
20710;BME280;10516;51.518;9.864;2023-06-14T01:48:28;98817.16;;;15.67;55.94
20710;BME280;10516;51.518;9.864;2023-06-14T01:50:53;98821.47;;;15.97;55.38
20710;BME280;10516;51.518;9.864;2023-06-14T01:53:19;98811.81;;;15.62;55.80
20710;BME280;10516;51.518;9.864;2023-06-14T01:55:44;98811.28;;;15.26;56.40
20710;BME280;10516;51.518;9.864;2023-06-14T01:58:14;98821.81;;;14.64;58.34
20710;BME280;10516;51.518;9.864;2023-06-14T02:00:41;98823.66;;;14.73;58.37
20710;BME280;10516;51.518;9.864;2023-06-14T02:03:08;98831.56;;;15.03;57.45
20710;BME280;10516;51.518;9.864;2023-06-14T02:05:34;98821.50;;;15.24;57.04
20710;BME280;10516;51.518;9.864;2023-06-14T02:08:00;98824.31;;;15.04;57.41
20710;BME280;10516;51.518;9.864;2023-06-14T02:10:25;98821.53;;;15.58;56.10
20710;BME280;10516;51.518;9.864;2023-06-14T02:12:50;98823.06;;;15.30;56.95
20710;BME280;10516;51.518;9.864;2023-06-14T02:15:16;98820.78;;;15.09;57.27
20710;BME280;10516;51.518;9.864;2023-06-14T02:17:45;98822.31;;;15.63;56.37
20710;BME280;10516;51.518;9.864;2023-06-14T02:20:12;98824.06;;;16.35;54.54
20710;BME280;10516;51.518;9.864;2023-06-14T02:22:38;98825.00;;;16.92;52.56
20710;BME280;10516;51.518;9.864;2023-06-14T02:25:03;98821.34;;;16.83;53.34
20710;BME280;10516;51.518;9.864;2023-06-14T02:27:29;98823.69;;;16.71;53.30
20710;BME280;10516;51.518;9.864;2023-06-14T02:29:54;98826.09;;;17.28;52.44
20710;BME280;10516;51.518;9.864;2023-06-14T02:32:20;98822.66;;;17.41;51.89
20710;BME280;10516;51.518;9.864;2023-06-14T02:34:45;98823.56;;;17.37;52.11
20710;BME280;10516;51.518;9.864;2023-06-14T02:37:15;98831.38;;;17.38;52.07
20710;BME280;10516;51.518;9.864;2023-06-14T02:39:40;98822.53;;;17.33;52.26
20710;BME280;10516;51.518;9.864;2023-06-14T02:42:06;98824.72;;;17.31;52.86
20710;BME280;10516;51.518;9.864;2023-06-14T02:44:31;98831.88;;;17.40;52.63
20710;BME280;10516;51.518;9.864;2023-06-14T02:46:57;98829.81;;;17.32;52.81
20710;BME280;10516;51.518;9.864;2023-06-14T02:49:24;98836.84;;;17.33;52.78
20710;BME280;10516;51.518;9.864;2023-06-14T02:51:49;98825.25;;;17.14;53.26
20710;BME280;10516;51.518;9.864;2023-06-14T02:54:15;98832.75;;;17.17;52.76
20710;BME280;10516;51.518;9.864;2023-06-14T02:56:40;98841.78;;;17.26;53.14
20710;BME280;10516;51.518;9.864;2023-06-14T02:59:06;98832.09;;;17.06;53.38
20710;BME280;10516;51.518;9.864;2023-06-14T03:01:35;98832.84;;;17.12;53.14
20710;BME280;10516;51.518;9.864;2023-06-14T03:04:04;98851.34;;;17.18;53.30
20710;BME280;10516;51.518;9.864;2023-06-14T03:06:29;98848.63;;;17.00;53.69
20710;BME280;10516;51.518;9.864;2023-06-14T03:08:56;98848.63;;;17.00;53.83
20710;BME280;10516;51.518;9.864;2023-06-14T03:11:25;98850.88;;;16.93;53.97
20710;BME280;10516;51.518;9.864;2023-06-14T03:13:51;98852.16;;;16.77;54.41
20710;BME280;10516;51.518;9.864;2023-06-14T03:16:17;98847.13;;;16.70;54.40
20710;BME280;10516;51.518;9.864;2023-06-14T03:18:45;98853.59;;;16.69;54.09
20710;BME280;10516;51.518;9.864;2023-06-14T03:21:11;98853.13;;;16.62;54.29
20710;BME280;10516;51.518;9.864;2023-06-14T03:23:36;98847.38;;;16.69;54.13
20710;BME280;10516;51.518;9.864;2023-06-14T03:26:02;98844.06;;;16.77;54.06
20710;BME280;10516;51.518;9.864;2023-06-14T03:28:27;98854.91;;;16.72;53.99
20710;BME280;10516;51.518;9.864;2023-06-14T03:30:53;98852.78;;;16.69;54.50
20710;BME280;10516;51.518;9.864;2023-06-14T03:33:18;98856.88;;;16.66;53.82
20710;BME280;10516;51.518;9.864;2023-06-14T03:35:44;98857.22;;;16.60;54.87
20710;BME280;10516;51.518;9.864;2023-06-14T03:38:10;98853.94;;;16.63;54.06
20710;BME280;10516;51.518;9.864;2023-06-14T03:40:35;98866.81;;;16.71;54.71
20710;BME280;10516;51.518;9.864;2023-06-14T03:43:00;98869.25;;;16.67;54.35
20710;BME280;10516;51.518;9.864;2023-06-14T03:45:26;98865.53;;;16.63;54.84
20710;BME280;10516;51.518;9.864;2023-06-14T03:47:51;98882.09;;;16.52;55.26
20710;BME280;10516;51.518;9.864;2023-06-14T03:50:17;98876.75;;;16.46;54.67
20710;BME280;10516;51.518;9.864;2023-06-14T03:52:43;98881.53;;;16.49;54.79
20710;BME280;10516;51.518;9.864;2023-06-14T03:55:09;98886.88;;;16.60;55.02
20710;BME280;10516;51.518;9.864;2023-06-14T03:57:35;98873.63;;;16.34;55.74
20710;BME280;10516;51.518;9.864;2023-06-14T04:00:00;98883.41;;;16.25;55.28
20710;BME280;10516;51.518;9.864;2023-06-14T04:02:26;98893.91;;;16.27;55.73
20710;BME280;10516;51.518;9.864;2023-06-14T04:04:54;98896.78;;;15.73;57.31
20710;BME280;10516;51.518;9.864;2023-06-14T04:07:19;98884.34;;;16.11;56.51
20710;BME280;10516;51.518;9.864;2023-06-14T04:09:46;98892.66;;;16.14;56.62
20710;BME280;10516;51.518;9.864;2023-06-14T04:12:11;98894.34;;;16.34;56.31
20710;BME280;10516;51.518;9.864;2023-06-14T04:14:37;98901.38;;;16.35;56.32
20710;BME280;10516;51.518;9.864;2023-06-14T04:17:03;98901.88;;;15.74;57.94
20710;BME280;10516;51.518;9.864;2023-06-14T04:19:28;98910.44;;;16.15;56.72
20710;BME280;10516;51.518;9.864;2023-06-14T04:21:54;98903.19;;;15.77;57.72
20710;BME280;10516;51.518;9.864;2023-06-14T04:24:19;98908.53;;;15.43;58.23
20710;BME280;10516;51.518;9.864;2023-06-14T04:26:45;98902.63;;;15.41;59.06
20710;BME280;10516;51.518;9.864;2023-06-14T04:29:16;98913.84;;;15.53;58.58
20710;BME280;10516;51.518;9.864;2023-06-14T04:31:42;98918.28;;;15.78;57.98
20710;BME280;10516;51.518;9.864;2023-06-14T04:34:08;98919.47;;;15.96;58.04
20710;BME280;10516;51.518;9.864;2023-06-14T04:36:34;98932.66;;;15.97;58.02
20710;BME280;10516;51.518;9.864;2023-06-14T04:39:00;98919.34;;;16.11;57.80
20710;BME280;10516;51.518;9.864;2023-06-14T04:41:29;98941.34;;;15.40;59.29
20710;BME280;10516;51.518;9.864;2023-06-14T04:44:00;98933.25;;;15.94;58.81
20710;BME280;10516;51.518;9.864;2023-06-14T04:46:29;98938.03;;;15.63;59.71
20710;BME280;10516;51.518;9.864;2023-06-14T04:48:55;98924.97;;;16.14;58.69
20710;BME280;10516;51.518;9.864;2023-06-14T04:51:21;98939.69;;;15.54;59.61
20710;BME280;10516;51.518;9.864;2023-06-14T04:53:58;98942.22;;;16.13;58.52
20710;BME280;10516;51.518;9.864;2023-06-14T04:56:26;98946.63;;;15.99;58.83
20710;BME280;10516;51.518;9.864;2023-06-14T04:58:52;98946.50;;;15.86;59.15
20710;BME280;10516;51.518;9.864;2023-06-14T05:01:18;98950.53;;;16.17;58.76
20710;BME280;10516;51.518;9.864;2023-06-14T05:03:44;98956.22;;;16.15;59.04
20710;BME280;10516;51.518;9.864;2023-06-14T05:06:11;98954.47;;;16.63;58.29
20710;BME280;10516;51.518;9.864;2023-06-14T05:08:37;98949.84;;;16.01;58.62
20710;BME280;10516;51.518;9.864;2023-06-14T05:11:02;98965.03;;;15.87;59.55
20710;BME280;10516;51.518;9.864;2023-06-14T05:13:28;98965.06;;;15.82;59.35
20710;BME280;10516;51.518;9.864;2023-06-14T05:15:53;98949.22;;;16.14;59.46
20710;BME280;10516;51.518;9.864;2023-06-14T05:18:19;98952.22;;;15.74;60.20
20710;BME280;10516;51.518;9.864;2023-06-14T05:20:45;98947.78;;;15.44;60.53
20710;BME280;10516;51.518;9.864;2023-06-14T05:23:11;98942.97;;;15.36;60.81
20710;BME280;10516;51.518;9.864;2023-06-14T05:25:42;98952.78;;;15.07;61.48
20710;BME280;10516;51.518;9.864;2023-06-14T05:28:08;98947.38;;;15.22;62.08
20710;BME280;10516;51.518;9.864;2023-06-14T05:30:33;98962.38;;;15.82;60.69
20710;BME280;10516;51.518;9.864;2023-06-14T05:32:58;98959.56;;;15.63;60.08
20710;BME280;10516;51.518;9.864;2023-06-14T05:35:24;98964.13;;;15.63;60.26
20710;BME280;10516;51.518;9.864;2023-06-14T05:37:52;98956.03;;;15.63;61.75
20710;BME280;10516;51.518;9.864;2023-06-14T05:40:17;98964.38;;;14.97;62.61
20710;BME280;10516;51.518;9.864;2023-06-14T05:42:43;98967.97;;;15.42;61.85
20710;BME280;10516;51.518;9.864;2023-06-14T05:45:08;98962.41;;;15.18;62.38
20710;BME280;10516;51.518;9.864;2023-06-14T05:47:34;98961.34;;;15.73;61.15
20710;BME280;10516;51.518;9.864;2023-06-14T05:49:59;98973.03;;;15.58;61.81
20710;BME280;10516;51.518;9.864;2023-06-14T05:52:25;98967.91;;;16.68;59.12
20710;BME280;10516;51.518;9.864;2023-06-14T05:54:51;98960.22;;;17.04;58.86
20710;BME280;10516;51.518;9.864;2023-06-14T05:57:17;98972.22;;;15.58;61.49
20710;BME280;10516;51.518;9.864;2023-06-14T05:59:45;98985.28;;;15.80;61.77
20710;BME280;10516;51.518;9.864;2023-06-14T06:02:11;98983.28;;;15.95;62.25
20710;BME280;10516;51.518;9.864;2023-06-14T06:04:36;98987.19;;;15.74;62.11
20710;BME280;10516;51.518;9.864;2023-06-14T06:07:02;98989.16;;;16.36;59.76
20710;BME280;10516;51.518;9.864;2023-06-14T06:09:27;98980.56;;;16.68;59.29
20710;BME280;10516;51.518;9.864;2023-06-14T06:11:53;98988.53;;;16.15;59.75
20710;BME280;10516;51.518;9.864;2023-06-14T06:14:21;98980.34;;;16.30;60.76
20710;BME280;10516;51.518;9.864;2023-06-14T06:16:47;98981.28;;;16.11;61.35
20710;BME280;10516;51.518;9.864;2023-06-14T06:19:12;98985.66;;;15.63;62.39
20710;BME280;10516;51.518;9.864;2023-06-14T06:21:37;98973.16;;;15.82;62.02
20710;BME280;10516;51.518;9.864;2023-06-14T06:24:04;98981.13;;;15.97;61.61
20710;BME280;10516;51.518;9.864;2023-06-14T06:26:31;98979.66;;;15.76;61.18
20710;BME280;10516;51.518;9.864;2023-06-14T06:28:56;98973.84;;;15.59;62.59
20710;BME280;10516;51.518;9.864;2023-06-14T06:31:22;98985.63;;;16.07;61.06
20710;BME280;10516;51.518;9.864;2023-06-14T06:33:47;98978.00;;;16.19;60.96
20710;BME280;10516;51.518;9.864;2023-06-14T06:36:13;98977.25;;;15.74;62.06
20710;BME280;10516;51.518;9.864;2023-06-14T06:38:38;98993.19;;;16.05;62.04
20710;BME280;10516;51.518;9.864;2023-06-14T06:41:04;98990.94;;;15.78;61.99
20710;BME280;10516;51.518;9.864;2023-06-14T06:43:29;98986.06;;;15.85;61.56
20710;BME280;10516;51.518;9.864;2023-06-14T06:45:54;98988.78;;;15.75;62.49
20710;BME280;10516;51.518;9.864;2023-06-14T06:48:20;98997.28;;;15.97;61.66
20710;BME280;10516;51.518;9.864;2023-06-14T06:50:45;98999.16;;;15.97;61.63
20710;BME280;10516;51.518;9.864;2023-06-14T06:53:11;98999.38;;;16.05;61.53
20710;BME280;10516;51.518;9.864;2023-06-14T06:55:36;98994.84;;;16.01;60.74
20710;BME280;10516;51.518;9.864;2023-06-14T06:58:01;98996.63;;;16.10;62.17
20710;BME280;10516;51.518;9.864;2023-06-14T07:00:29;98994.03;;;16.34;60.99
20710;BME280;10516;51.518;9.864;2023-06-14T07:02:55;99003.03;;;16.19;60.11
20710;BME280;10516;51.518;9.864;2023-06-14T07:05:22;99005.53;;;16.11;61.57
20710;BME280;10516;51.518;9.864;2023-06-14T07:07:47;99003.25;;;16.28;61.64
20710;BME280;10516;51.518;9.864;2023-06-14T07:10:13;99009.13;;;15.96;62.47
20710;BME280;10516;51.518;9.864;2023-06-14T07:12:38;99007.22;;;15.97;61.73
20710;BME280;10516;51.518;9.864;2023-06-14T07:15:06;99011.63;;;15.83;61.68
20710;BME280;10516;51.518;9.864;2023-06-14T07:17:32;99029.97;;;16.19;61.71
20710;BME280;10516;51.518;9.864;2023-06-14T07:19:59;99008.75;;;16.13;60.72
20710;BME280;10516;51.518;9.864;2023-06-14T07:22:24;99027.28;;;16.19;60.90
20710;BME280;10516;51.518;9.864;2023-06-14T07:24:49;99022.25;;;17.04;59.27
20710;BME280;10516;51.518;9.864;2023-06-14T07:27:15;99032.84;;;16.67;59.49
20710;BME280;10516;51.518;9.864;2023-06-14T07:29:40;99026.44;;;17.39;58.90
20710;BME280;10516;51.518;9.864;2023-06-14T07:32:06;99022.81;;;17.48;58.54
20710;BME280;10516;51.518;9.864;2023-06-14T07:34:32;99025.47;;;18.14;57.53
20710;BME280;10516;51.518;9.864;2023-06-14T07:36:57;99024.34;;;17.12;59.31
20710;BME280;10516;51.518;9.864;2023-06-14T07:39:22;99035.28;;;16.97;59.30
20710;BME280;10516;51.518;9.864;2023-06-14T07:41:48;99030.75;;;17.63;57.21
20710;BME280;10516;51.518;9.864;2023-06-14T07:44:14;99040.16;;;18.08;56.94
20710;BME280;10516;51.518;9.864;2023-06-14T07:46:39;99028.56;;;17.18;57.88
20710;BME280;10516;51.518;9.864;2023-06-14T07:49:05;99035.53;;;16.95;59.07
20710;BME280;10516;51.518;9.864;2023-06-14T07:51:31;99025.75;;;17.04;58.56
20710;BME280;10516;51.518;9.864;2023-06-14T07:53:56;99027.72;;;16.99;58.73
20710;BME280;10516;51.518;9.864;2023-06-14T07:56:21;99029.75;;;17.78;57.48
20710;BME280;10516;51.518;9.864;2023-06-14T07:58:48;99019.09;;;18.05;55.30
20710;BME280;10516;51.518;9.864;2023-06-14T08:01:13;99027.25;;;18.37;56.17
20710;BME280;10516;51.518;9.864;2023-06-14T08:03:40;99033.34;;;18.29;55.31
20710;BME280;10516;51.518;9.864;2023-06-14T08:06:06;99026.69;;;17.66;56.35
20710;BME280;10516;51.518;9.864;2023-06-14T08:08:32;99021.53;;;17.88;57.84
20710;BME280;10516;51.518;9.864;2023-06-14T08:10:58;99029.16;;;17.62;56.77
20710;BME280;10516;51.518;9.864;2023-06-14T08:13:23;99024.66;;;17.95;58.08
20710;BME280;10516;51.518;9.864;2023-06-14T08:15:49;99029.09;;;18.23;55.53
20710;BME280;10516;51.518;9.864;2023-06-14T08:18:14;99021.66;;;18.34;55.26
20710;BME280;10516;51.518;9.864;2023-06-14T08:20:40;99031.34;;;18.35;55.87
20710;BME280;10516;51.518;9.864;2023-06-14T08:23:05;99041.50;;;17.87;55.97
20710;BME280;10516;51.518;9.864;2023-06-14T08:25:30;99032.31;;;17.88;56.53
20710;BME280;10516;51.518;9.864;2023-06-14T08:27:56;99040.84;;;18.14;55.41
20710;BME280;10516;51.518;9.864;2023-06-14T08:30:22;99028.38;;;17.99;55.83
20710;BME280;10516;51.518;9.864;2023-06-14T08:32:47;99032.69;;;18.19;55.64
20710;BME280;10516;51.518;9.864;2023-06-14T08:35:13;99031.34;;;17.97;56.19
20710;BME280;10516;51.518;9.864;2023-06-14T08:37:40;99029.44;;;18.35;55.35
20710;BME280;10516;51.518;9.864;2023-06-14T08:40:17;99019.25;;;17.76;54.84
20710;BME280;10516;51.518;9.864;2023-06-14T08:42:44;99026.97;;;18.57;54.62
20710;BME280;10516;51.518;9.864;2023-06-14T08:45:11;99015.06;;;18.40;54.56
20710;BME280;10516;51.518;9.864;2023-06-14T08:47:37;99015.94;;;19.00;53.84
20710;BME280;10516;51.518;9.864;2023-06-14T08:50:03;99010.66;;;19.49;52.59
20710;BME280;10516;51.518;9.864;2023-06-14T08:52:33;99021.03;;;19.01;53.65
20710;BME280;10516;51.518;9.864;2023-06-14T08:55:06;99026.28;;;18.65;54.14
20710;BME280;10516;51.518;9.864;2023-06-14T08:57:32;99028.16;;;18.51;54.79
20710;BME280;10516;51.518;9.864;2023-06-14T08:59:59;99030.28;;;18.68;54.27
20710;BME280;10516;51.518;9.864;2023-06-14T09:02:26;99018.25;;;18.42;53.68
20710;BME280;10516;51.518;9.864;2023-06-14T09:04:52;99028.09;;;18.70;53.17
20710;BME280;10516;51.518;9.864;2023-06-14T09:07:17;99017.81;;;18.86;53.62
20710;BME280;10516;51.518;9.864;2023-06-14T09:09:43;99021.53;;;18.76;54.54
20710;BME280;10516;51.518;9.864;2023-06-14T09:12:10;99019.69;;;18.72;54.36
20710;BME280;10516;51.518;9.864;2023-06-14T09:14:36;99033.31;;;18.66;54.39
20710;BME280;10516;51.518;9.864;2023-06-14T09:17:04;99013.72;;;18.88;54.62
20710;BME280;10516;51.518;9.864;2023-06-14T09:19:29;99014.75;;;19.47;52.58
20710;BME280;10516;51.518;9.864;2023-06-14T09:21:55;99022.63;;;18.89;51.98
20710;BME280;10516;51.518;9.864;2023-06-14T09:24:20;99017.13;;;19.07;51.71
20710;BME280;10516;51.518;9.864;2023-06-14T09:26:53;99014.06;;;18.68;52.20
20710;BME280;10516;51.518;9.864;2023-06-14T09:29:18;99020.34;;;18.63;51.75
20710;BME280;10516;51.518;9.864;2023-06-14T09:31:46;99027.25;;;18.56;52.00
20710;BME280;10516;51.518;9.864;2023-06-14T09:34:12;99017.38;;;19.52;51.05
20710;BME280;10516;51.518;9.864;2023-06-14T09:36:39;99017.94;;;19.08;51.79
20710;BME280;10516;51.518;9.864;2023-06-14T09:39:08;99031.28;;;19.04;52.16
20710;BME280;10516;51.518;9.864;2023-06-14T09:41:38;99036.31;;;18.65;52.74
20710;BME280;10516;51.518;9.864;2023-06-14T09:44:06;99014.06;;;18.68;51.44
20710;BME280;10516;51.518;9.864;2023-06-14T09:46:32;99030.00;;;19.15;52.07
20710;BME280;10516;51.518;9.864;2023-06-14T09:48:59;99020.16;;;19.19;51.81
20710;BME280;10516;51.518;9.864;2023-06-14T09:51:25;99031.09;;;19.82;50.76
20710;BME280;10516;51.518;9.864;2023-06-14T09:53:51;99036.31;;;20.28;50.70
20710;BME280;10516;51.518;9.864;2023-06-14T09:56:31;99037.41;;;20.49;49.72
20710;BME280;10516;51.518;9.864;2023-06-14T09:58:59;99035.06;;;20.78;49.05
20710;BME280;10516;51.518;9.864;2023-06-14T10:01:26;99045.75;;;20.53;48.90
20710;BME280;10516;51.518;9.864;2023-06-14T10:04:14;99026.34;;;20.59;48.61
20710;BME280;10516;51.518;9.864;2023-06-14T10:06:43;99021.41;;;20.61;47.39
20710;BME280;10516;51.518;9.864;2023-06-14T10:09:11;99040.38;;;20.61;47.33
20710;BME280;10516;51.518;9.864;2023-06-14T10:11:37;99028.72;;;20.61;47.92
20710;BME280;10516;51.518;9.864;2023-06-14T10:14:09;99028.06;;;20.19;48.34
20710;BME280;10516;51.518;9.864;2023-06-14T10:22:00;99027.31;;;20.05;48.96
20710;BME280;10516;51.518;9.864;2023-06-14T10:24:32;99023.44;;;19.84;48.49
20710;BME280;10516;51.518;9.864;2023-06-14T10:26:59;99023.47;;;19.71;48.86
20710;BME280;10516;51.518;9.864;2023-06-14T10:29:29;99013.66;;;19.61;48.75
20710;BME280;10516;51.518;9.864;2023-06-14T10:31:59;99019.19;;;19.56;48.69
20710;BME280;10516;51.518;9.864;2023-06-14T10:34:38;99029.69;;;19.71;49.26
20710;BME280;10516;51.518;9.864;2023-06-14T10:39:42;99018.06;;;20.06;48.84
20710;BME280;10516;51.518;9.864;2023-06-14T10:42:11;99014.91;;;19.91;49.12
20710;BME280;10516;51.518;9.864;2023-06-14T10:44:51;99021.63;;;20.29;46.54
20710;BME280;10516;51.518;9.864;2023-06-14T10:47:24;99016.31;;;19.88;46.63
20710;BME280;10516;51.518;9.864;2023-06-14T10:49:51;99013.41;;;19.98;45.69
20710;BME280;10516;51.518;9.864;2023-06-14T10:52:21;99009.38;;;20.54;46.76
20710;BME280;10516;51.518;9.864;2023-06-14T10:57:54;99009.66;;;20.74;45.32
20710;BME280;10516;51.518;9.864;2023-06-14T11:00:25;99010.31;;;20.80;45.58
20710;BME280;10516;51.518;9.864;2023-06-14T11:05:57;98999.78;;;20.78;46.13
20710;BME280;10516;51.518;9.864;2023-06-14T11:09:02;99009.34;;;21.37;44.82
20710;BME280;10516;51.518;9.864;2023-06-14T11:11:35;98994.75;;;21.16;44.88
20710;BME280;10516;51.518;9.864;2023-06-14T11:14:02;98993.81;;;22.03;44.62
20710;BME280;10516;51.518;9.864;2023-06-14T11:16:28;98974.47;;;21.96;44.69
20710;BME280;10516;51.518;9.864;2023-06-14T11:18:54;98987.53;;;21.68;44.59
20710;BME280;10516;51.518;9.864;2023-06-14T11:21:19;98984.84;;;20.89;45.22
20710;BME280;10516;51.518;9.864;2023-06-14T11:23:49;98990.44;;;21.24;46.29
20710;BME280;10516;51.518;9.864;2023-06-14T11:26:16;98995.69;;;22.71;43.90
20710;BME280;10516;51.518;9.864;2023-06-14T11:28:41;98976.81;;;21.63;44.84
20710;BME280;10516;51.518;9.864;2023-06-14T11:31:07;98986.28;;;22.08;45.58
20710;BME280;10516;51.518;9.864;2023-06-14T11:33:33;98985.66;;;22.63;44.46
20710;BME280;10516;51.518;9.864;2023-06-14T11:36:02;98991.84;;;22.55;43.75
20710;BME280;10516;51.518;9.864;2023-06-14T11:38:29;98990.63;;;22.09;44.57
20710;BME280;10516;51.518;9.864;2023-06-14T11:40:58;98990.28;;;21.85;44.78
20710;BME280;10516;51.518;9.864;2023-06-14T11:43:24;98986.59;;;21.81;44.89
20710;BME280;10516;51.518;9.864;2023-06-14T11:45:50;98981.19;;;21.90;43.90
20710;BME280;10516;51.518;9.864;2023-06-14T11:48:16;98979.41;;;22.11;44.66
20710;BME280;10516;51.518;9.864;2023-06-14T11:50:42;98973.94;;;21.59;44.58
20710;BME280;10516;51.518;9.864;2023-06-14T11:53:07;98977.03;;;21.84;44.51
20710;BME280;10516;51.518;9.864;2023-06-14T11:55:38;98976.84;;;21.89;44.52
20710;BME280;10516;51.518;9.864;2023-06-14T11:58:04;98984.50;;;22.55;44.41
20710;BME280;10516;51.518;9.864;2023-06-14T12:00:30;98972.06;;;23.67;41.35
20710;BME280;10516;51.518;9.864;2023-06-14T12:02:56;98965.75;;;23.17;41.96
20710;BME280;10516;51.518;9.864;2023-06-14T12:05:22;98966.44;;;23.05;41.60
20710;BME280;10516;51.518;9.864;2023-06-14T12:07:48;98970.13;;;22.29;43.37
20710;BME280;10516;51.518;9.864;2023-06-14T12:10:15;98955.66;;;23.47;42.14
20710;BME280;10516;51.518;9.864;2023-06-14T12:12:41;98964.34;;;23.69;42.14
20710;BME280;10516;51.518;9.864;2023-06-14T12:15:08;98959.28;;;23.59;42.43
20710;BME280;10516;51.518;9.864;2023-06-14T12:17:35;98956.84;;;23.37;41.82
20710;BME280;10516;51.518;9.864;2023-06-14T12:20:12;98953.13;;;23.13;42.07
20710;BME280;10516;51.518;9.864;2023-06-14T12:22:56;98954.63;;;22.21;42.82
20710;BME280;10516;51.518;9.864;2023-06-14T12:25:32;98967.59;;;22.07;44.06
20710;BME280;10516;51.518;9.864;2023-06-14T12:28:08;98969.81;;;22.13;44.50
20710;BME280;10516;51.518;9.864;2023-06-14T12:30:35;98961.34;;;22.23;43.75
20710;BME280;10516;51.518;9.864;2023-06-14T12:33:02;98955.56;;;22.33;42.90
20710;BME280;10516;51.518;9.864;2023-06-14T12:35:28;98957.44;;;22.50;43.53
20710;BME280;10516;51.518;9.864;2023-06-14T12:37:54;98957.34;;;22.21;43.92
20710;BME280;10516;51.518;9.864;2023-06-14T12:40:19;98961.50;;;21.84;43.57
20710;BME280;10516;51.518;9.864;2023-06-14T12:42:45;98954.94;;;22.19;44.05
20710;BME280;10516;51.518;9.864;2023-06-14T12:45:12;98966.56;;;22.46;43.74
20710;BME280;10516;51.518;9.864;2023-06-14T12:47:37;98972.00;;;22.54;43.68
20710;BME280;10516;51.518;9.864;2023-06-14T12:50:03;98964.81;;;23.04;43.43
20710;BME280;10516;51.518;9.864;2023-06-14T12:52:29;98945.75;;;23.42;42.47
20710;BME280;10516;51.518;9.864;2023-06-14T12:54:55;98948.44;;;23.51;42.13
20710;BME280;10516;51.518;9.864;2023-06-14T12:57:20;98960.97;;;23.93;41.83
20710;BME280;10516;51.518;9.864;2023-06-14T12:59:46;98955.56;;;24.58;41.43
20710;BME280;10516;51.518;9.864;2023-06-14T13:02:19;98968.25;;;24.01;41.10
20710;BME280;10516;51.518;9.864;2023-06-14T13:04:47;98964.22;;;24.28;41.86
20710;BME280;10516;51.518;9.864;2023-06-14T13:07:12;98964.09;;;24.24;41.08
20710;BME280;10516;51.518;9.864;2023-06-14T13:09:40;98948.03;;;24.55;40.34
20710;BME280;10516;51.518;9.864;2023-06-14T13:12:06;98951.13;;;24.54;40.61